Filey, United Kingdom
Current Conditions -  °F | °C
As of 3:50 AM on Thursday 29 Jan 2015 (Local Time) from EGXV Reporting Station
Scattered Clouds Scattered Clouds  
Wind Chill: -3°   Ceiling: Unl
Heat Index:   Visibility: 6mi
Dew Point:   Wind: 13mph
Humidity: 87%   Direction: 260°W
Pressure: 29.09"   Gusts: NA
Location:  54.21°N, 0.29°W
Report Text: EGXV 290350Z AUTO 26011KT 9999 SCT032/// 02/M00 Q0985
Loading
Personal Weather Stations






























Interactive Weather Map New forecast layout! Learn more

10-Day Weather Forecast

Advertisements
Track Severe Weather on mobile